Time;durP1;ratioP1;P1;durP2;ratioP2;P2;SDS_P1;SDS_P2;PMS_P1;PMS_P2;Temp;Humidity;BMP_temperature;BMP_pressure;BME280_temperature;BME280_humidity;BME280_pressure;Samples;Min_cycle;Max_cycle;Signal;HPM_P1;HPM_P2
2023/04/29 00:00:00;;;;;;;17.77;8.70;;;;;;;8.05;69.66;94898.59;5012875;28;20303;-76
2023/04/29 00:02:25;;;;;;;22.20;11.10;;;;;;;8.04;69.75;94902.25;5006317;28;20666;-76
2023/04/29 00:04:51;;;;;;;16.07;9.00;;;;;;;8.04;69.55;94907.50;4993394;28;20184;-76
2023/04/29 00:07:16;;;;;;;20.17;10.67;;;;;;;8.01;69.82;94895.56;5003979;28;20643;-76
2023/04/29 00:09:43;;;;;;;16.97;9.50;;;;;;;8.06;68.76;94898.41;5012729;28;20682;-76
2023/04/29 00:12:09;;;;;;;17.83;10.47;;;;;;;8.07;68.71;94907.91;4997247;28;20197;-76
2023/04/29 00:14:35;;;;;;;19.03;9.03;;;;;;;8.08;68.69;94903.47;5010958;28;20176;-76
2023/04/29 00:17:00;;;;;;;19.37;9.43;;;;;;;8.00;68.44;94906.25;5012586;28;20183;-76
2023/04/29 00:19:25;;;;;;;27.03;11.60;;;;;;;7.95;68.31;94905.03;5012680;28;20180;-76
2023/04/29 00:21:53;;;;;;;22.73;11.07;;;;;;;7.86;68.53;94908.81;5005596;28;20273;-76
2023/04/29 00:24:18;;;;;;;25.47;11.77;;;;;;;7.84;68.90;94908.19;4992673;28;20240;-76
2023/04/29 00:26:44;;;;;;;22.93;10.10;;;;;;;7.81;68.50;94907.75;4995277;28;20209;-76
2023/04/29 00:29:09;;;;;;;22.03;10.60;;;;;;;7.78;69.04;94906.34;4998518;28;20312;-76
2023/04/29 00:31:36;;;;;;;17.83;10.03;;;;;;;7.69;69.88;94914.53;4992695;28;20346;-76
2023/04/29 00:34:01;;;;;;;21.13;9.70;;;;;;;7.65;70.27;94910.66;5010556;28;20642;-76
2023/04/29 00:36:27;;;;;;;19.50;9.83;;;;;;;7.68;69.50;94903.25;5012177;28;20184;-76
2023/04/29 00:38:52;;;;;;;17.37;8.90;;;;;;;7.66;69.09;94907.06;5006931;28;20587;-76
2023/04/29 00:41:18;;;;;;;19.90;8.93;;;;;;;7.65;69.27;94905.44;5005714;28;20260;-76
2023/04/29 00:43:44;;;;;;;15.40;8.27;;;;;;;7.43;69.65;94889.78;5012056;28;20308;-76
2023/04/29 00:46:09;;;;;;;16.70;8.00;;;;;;;7.52;70.35;94895.69;5008919;28;20247;-76
2023/04/29 00:48:34;;;;;;;17.37;9.10;;;;;;;7.51;71.01;94892.25;4994530;28;20239;-76
2023/04/29 00:51:01;;;;;;;23.67;9.83;;;;;;;7.48;71.44;94903.09;4992377;28;20638;-76
2023/04/29 00:53:26;;;;;;;11.70;6.63;;;;;;;7.33;72.56;94897.16;5010779;28;20187;-76
2023/04/29 00:55:52;;;;;;;11.83;7.43;;;;;;;7.26;72.46;94901.53;4998149;28;20185;-76
2023/04/29 00:58:18;;;;;;;12.83;6.67;;;;;;;7.23;72.60;94888.00;4997654;28;20574;-76
2023/04/29 01:00:45;;;;;;;15.80;7.23;;;;;;;7.20;72.37;94890.00;5002028;28;20212;-76
2023/04/29 01:03:12;;;;;;;21.80;9.77;;;;;;;7.20;72.97;94882.13;4997254;28;20184;-76
2023/04/29 01:05:37;;;;;;;14.10;7.37;;;;;;;7.23;72.49;94880.13;5003809;28;20183;-76
2023/04/29 01:08:10;;;;;;;13.30;7.47;;;;;;;7.21;72.91;94880.31;4997124;28;20192;-76
2023/04/29 01:10:40;;;;;;;10.90;6.87;;;;;;;7.01;72.70;94846.13;4990493;28;20209;-76
2023/04/29 01:13:12;;;;;;;11.80;6.40;;;;;;;7.24;72.77;94873.91;4993759;28;20268;-76
2023/04/29 01:15:48;;;;;;;14.37;6.73;;;;;;;7.19;72.58;94872.66;4974693;28;20690;-76
2023/04/29 01:18:23;;;;;;;12.53;6.83;;;;;;;7.17;72.37;94869.44;5001679;28;20234;-76
2023/04/29 01:20:49;;;;;;;12.97;7.33;;;;;;;7.13;73.40;94864.75;5002607;28;20172;-76
2023/04/29 01:23:15;;;;;;;16.67;7.07;;;;;;;6.99;73.17;94842.09;5011375;28;20185;-76
2023/04/29 01:25:40;;;;;;;13.20;7.17;;;;;;;7.05;72.58;94865.69;5008873;28;20235;-76
2023/04/29 01:28:27;;;;;;;22.83;7.73;;;;;;;7.03;72.86;94864.25;4991429;28;20228;-76
2023/04/29 01:31:00;;;;;;;19.67;7.30;;;;;;;6.98;72.82;94867.47;4991877;28;20256;-76
2023/04/29 01:33:39;;;;;;;30.27;16.20;;;;;;;6.92;72.92;94870.81;4984960;28;20216;-76
2023/04/29 01:36:52;;;;;;;23.17;13.10;;;;;;;6.88;73.24;94866.97;4991341;28;20689;-76
2023/04/29 01:39:26;;;;;;;28.83;14.90;;;;;;;6.89;73.21;94862.53;4948131;28;20232;-76
2023/04/29 01:42:10;;;;;;;31.63;16.30;;;;;;;6.86;73.08;94868.94;5002028;28;20206;-76
2023/04/29 01:44:37;;;;;;;29.87;16.67;;;;;;;6.84;72.61;94870.94;4991801;28;20565;-76
2023/04/29 01:47:02;;;;;;;28.40;15.87;;;;;;;6.78;73.22;94866.47;4991706;28;20212;-76
2023/04/29 01:49:28;;;;;;;25.57;15.10;;;;;;;6.86;73.44;94862.91;4991792;28;20196;-76
2023/04/29 01:51:53;;;;;;;22.40;14.50;;;;;;;6.71;73.14;94842.88;4995307;28;20184;-76
2023/04/29 01:54:19;;;;;;;24.07;14.30;;;;;;;6.79;73.08;94865.47;4996950;28;20192;-76
2023/04/29 01:56:45;;;;;;;24.33;14.80;;;;;;;6.63;73.09;94843.00;4991746;28;20173;-76
2023/04/29 01:59:10;;;;;;;25.90;15.37;;;;;;;6.61;73.00;94846.78;5001946;28;20181;-76
2023/04/29 02:01:36;;;;;;;25.30;13.83;;;;;;;6.73;73.70;94867.03;5011287;28;20183;-76
2023/04/29 02:04:02;;;;;;;21.70;13.90;;;;;;;6.70;73.98;94870.00;5011079;28;20172;-76
2023/04/29 02:06:27;;;;;;;18.63;12.27;;;;;;;6.69;73.54;94873.63;5011028;28;20176;-76
2023/04/29 02:08:53;;;;;;;20.13;11.33;;;;;;;6.47;74.40;94840.63;5009246;28;20188;-76
2023/04/29 02:11:18;;;;;;;17.83;11.63;;;;;;;6.48;74.50;94854.50;4991619;28;20615;-76
2023/04/29 02:13:44;;;;;;;23.50;12.97;;;;;;;6.52;74.66;94863.59;5006058;28;20189;-76
2023/04/29 02:16:10;;;;;;;21.67;12.83;;;;;;;6.54;74.21;94865.03;5010521;28;20541;-76
2023/04/29 02:18:36;;;;;;;18.83;10.15;;;;;;;6.53;73.77;94868.63;5001254;28;20424;-76
2023/04/29 02:21:02;;;;;;;17.20;10.07;;;;;;;6.47;73.94;94860.72;4993744;28;20415;-76
2023/04/29 02:23:28;;;;;;;12.53;8.57;;;;;;;6.47;74.13;94868.56;4994882;28;20236;-76
2023/04/29 02:25:53;;;;;;;14.40;8.87;;;;;;;6.33;74.32;94849.31;4995258;28;20187;-76
2023/04/29 02:28:19;;;;;;;22.20;7.70;;;;;;;6.52;73.43;94864.41;5005649;28;20228;-76
2023/04/29 02:30:44;;;;;;;15.83;7.30;;;;;;;6.46;73.33;94865.16;5014663;28;20267;-76
2023/04/29 02:33:10;;;;;;;30.77;9.63;;;;;;;6.47;73.80;94865.97;5008180;28;20209;-76
2023/04/29 02:35:35;;;;;;;18.07;8.23;;;;;;;6.48;73.50;94864.97;5012282;28;20183;-76
2023/04/29 02:38:01;;;;;;;16.67;8.43;;;;;;;6.44;73.61;94867.94;4985972;28;20177;-76
2023/04/29 02:40:26;;;;;;;15.80;7.97;;;;;;;6.47;74.16;94866.78;5003489;28;20176;-76
2023/04/29 02:42:51;;;;;;;14.90;7.80;;;;;;;6.43;74.14;94858.47;4994817;28;20181;-76
2023/04/29 02:45:17;;;;;;;12.67;8.33;;;;;;;6.29;74.24;94846.28;5012162;28;20190;-76
2023/04/29 02:47:43;;;;;;;15.47;8.13;;;;;;;6.38;73.67;94868.69;5014338;28;20251;-76
2023/04/29 02:50:09;;;;;;;12.60;7.50;;;;;;;6.33;74.29;94871.03;5014255;28;20172;-76
2023/04/29 02:52:34;;;;;;;13.20;7.90;;;;;;;6.14;73.83;94834.25;5014085;28;20179;-76
2023/04/29 02:55:00;;;;;;;12.50;6.60;;;;;;;6.33;74.04;94873.66;4996370;28;20243;-76
2023/04/29 02:57:25;;;;;;;15.73;8.10;;;;;;;6.23;74.28;94882.75;4994452;28;20204;-76
2023/04/29 02:59:51;;;;;;;16.77;7.10;;;;;;;6.24;74.21;94900.88;5007120;28;20566;-76
2023/04/29 03:02:16;;;;;;;12.17;6.17;;;;;;;6.18;74.63;94895.56;5009133;28;20215;-76
2023/04/29 03:04:42;;;;;;;15.80;7.03;;;;;;;6.15;74.42;94880.25;5004713;28;20207;-76
2023/04/29 03:07:07;;;;;;;19.93;7.30;;;;;;;6.15;74.02;94878.44;4994398;28;20208;-76
2023/04/29 03:09:33;;;;;;;13.83;7.60;;;;;;;5.99;74.93;94866.41;4994248;28;20188;-76
2023/04/29 03:11:58;;;;;;;9.57;6.93;;;;;;;6.09;75.17;94884.41;4993956;28;20529;-76
2023/04/29 03:14:23;;;;;;;12.50;7.93;;;;;;;6.15;74.92;94883.69;5006986;28;20189;-76
2023/04/29 03:16:49;;;;;;;13.00;7.07;;;;;;;6.09;74.90;94870.53;4994058;28;20181;-76
2023/04/29 03:19:15;;;;;;;15.13;7.97;;;;;;;6.19;74.41;94891.97;5000127;28;20291;-75
2023/04/29 03:21:41;;;;;;;12.20;7.37;;;;;;;6.17;74.46;94886.94;4997674;28;20181;-76
2023/04/29 03:24:07;;;;;;;18.03;7.80;;;;;;;6.09;74.66;94887.03;5002773;28;20180;-76
2023/04/29 03:26:32;;;;;;;19.37;8.60;;;;;;;6.15;74.83;94912.41;5013349;28;20651;-76
2023/04/29 03:28:58;;;;;;;17.57;7.70;;;;;;;6.13;74.68;94905.78;5001235;28;20304;-76
2023/04/29 03:31:24;;;;;;;18.17;9.13;;;;;;;6.04;74.85;94908.50;4993833;28;20173;-77
2023/04/29 03:33:52;;;;;;;19.00;9.57;;;;;;;6.06;75.08;94918.75;4994311;28;20191;-76
2023/04/29 03:36:17;;;;;;;15.20;8.60;;;;;;;6.09;75.05;94917.56;4997146;28;20176;-77
2023/04/29 03:38:43;;;;;;;20.83;10.23;;;;;;;6.04;75.16;94918.94;4999635;28;20727;-77
2023/04/29 03:41:08;;;;;;;17.53;9.60;;;;;;;5.99;75.15;94910.00;5001593;28;20636;-76
2023/04/29 03:43:34;;;;;;;18.00;10.27;;;;;;;6.04;74.87;94923.34;5012368;28;20172;-77
2023/04/29 03:45:59;;;;;;;22.67;10.90;;;;;;;5.96;75.39;94908.59;4993779;28;20181;-77
2023/04/29 03:48:24;;;;;;;22.13;11.07;;;;;;;5.97;75.91;94904.16;4993689;28;20702;-77
2023/04/29 03:50:50;;;;;;;51.70;21.70;;;;;;;6.07;76.27;94900.28;5001377;28;20172;-76
2023/04/29 03:53:16;;;;;;;54.73;25.93;;;;;;;6.14;76.91;94897.72;5004536;28;20183;-77
2023/04/29 03:55:41;;;;;;;26.50;13.47;;;;;;;6.26;76.12;94905.94;5013160;28;20535;-76
2023/04/29 03:58:07;;;;;;;43.73;22.53;;;;;;;6.15;76.55;94909.81;4997629;28;20412;-76
2023/04/29 04:00:33;;;;;;;27.07;12.10;;;;;;;6.16;76.81;94892.31;5004652;28;20181;-77
2023/04/29 04:02:59;;;;;;;23.77;12.33;;;;;;;6.31;76.59;94907.00;5010770;28;20176;-77
2023/04/29 04:05:24;;;;;;;35.40;16.10;;;;;;;6.33;76.67;94914.66;4993622;28;20211;-76
2023/04/29 04:07:51;;;;;;;33.87;18.70;;;;;;;6.23;75.73;94888.00;4993613;28;20590;-76
2023/04/29 04:10:17;;;;;;;25.50;15.90;;;;;;;6.39;76.67;94916.56;5002091;28;20173;-76
2023/04/29 04:12:42;;;;;;;41.10;21.47;;;;;;;6.31;77.33;94901.75;4993389;28;20177;-77
2023/04/29 04:15:08;;;;;;;35.93;20.27;;;;;;;6.52;77.51;94921.91;5001878;28;20181;-77
2023/04/29 04:17:34;;;;;;;31.83;19.07;;;;;;;6.65;77.47;94923.88;4997480;28;20169;-77
2023/04/29 04:19:59;;;;;;;30.77;18.17;;;;;;;6.73;76.03;94921.97;5001435;28;20665;-77
2023/04/29 04:22:24;;;;;;;28.17;14.53;;;;;;;6.86;75.77;94917.84;5003816;28;20186;-77
2023/04/29 04:24:50;;;;;;;26.97;14.63;;;;;;;6.95;75.31;94912.31;5013058;28;20181;-77
2023/04/29 04:27:15;;;;;;;44.03;24.97;;;;;;;7.05;75.30;94915.44;5013062;28;20408;-77
2023/04/29 04:29:40;;;;;;;34.67;17.60;;;;;;;7.20;74.89;94918.78;5005245;28;20224;-77
2023/04/29 04:32:06;;;;;;;34.43;19.47;;;;;;;7.32;73.78;94915.66;5012703;28;20180;-77
2023/04/29 04:34:31;;;;;;;37.77;18.77;;;;;;;7.41;74.79;94917.16;5008159;28;20179;-77
2023/04/29 04:36:57;;;;;;;44.00;20.60;;;;;;;7.50;74.69;94918.63;5003469;28;20168;-77
2023/04/29 04:39:22;;;;;;;41.13;19.83;;;;;;;7.66;73.78;94925.38;4995496;28;20179;-77
2023/04/29 04:41:48;;;;;;;34.87;16.83;;;;;;;7.77;72.95;94920.44;5011342;28;20188;-77
2023/04/29 04:44:13;;;;;;;28.87;11.93;;;;;;;7.70;72.21;94895.97;5008304;28;20169;-77
2023/04/29 04:46:38;;;;;;;24.27;10.57;;;;;;;7.95;70.62;94931.25;5004969;28;20200;-77
2023/04/29 04:49:04;;;;;;;38.43;16.30;;;;;;;8.01;70.47;94918.34;5012686;28;20235;-77
2023/04/29 04:51:30;;;;;;;34.43;17.33;;;;;;;8.20;70.04;94928.16;5010541;28;20315;-77
2023/04/29 04:53:55;;;;;;;21.90;11.20;;;;;;;8.30;69.25;94920.75;4996624;28;20177;-77
2023/04/29 04:56:21;;;;;;;16.57;7.73;;;;;;;8.39;69.12;94918.78;5003500;28;20267;-77
2023/04/29 04:58:46;;;;;;;12.20;5.77;;;;;;;8.46;68.22;94920.44;5012262;28;20234;-77
2023/04/29 05:01:11;;;;;;;15.17;6.13;;;;;;;8.51;66.25;94912.75;5001813;28;20185;-77
2023/04/29 05:03:37;;;;;;;26.80;6.57;;;;;;;8.60;66.90;94918.66;4992242;28;20204;-77
2023/04/29 05:06:03;;;;;;;8.27;4.97;;;;;;;8.80;67.72;94910.84;4992549;28;20177;-77
2023/04/29 05:08:28;;;;;;;11.13;4.90;;;;;;;8.99;67.45;94916.13;5001075;28;20201;-77
2023/04/29 05:10:54;;;;;;;13.60;5.63;;;;;;;9.21;66.95;94908.06;5011730;28;20662;-77
2023/04/29 05:13:19;;;;;;;7.90;4.67;;;;;;;9.31;64.87;94892.72;5011923;28;20242;-77
2023/04/29 05:15:45;;;;;;;13.97;5.00;;;;;;;9.56;64.73;94901.63;5003123;28;20176;-77
2023/04/29 05:18:11;;;;;;;11.37;5.27;;;;;;;9.55;63.51;94876.34;5003137;28;20208;-77
2023/04/29 05:20:36;;;;;;;10.23;4.87;;;;;;;9.70;63.27;94887.44;5000936;28;20173;-76
2023/04/29 05:23:02;;;;;;;11.43;5.63;;;;;;;9.78;63.00;94894.31;4996296;28;20549;-77
2023/04/29 05:25:28;;;;;;;12.10;5.20;;;;;;;9.84;63.76;94890.88;5005227;28;20263;-78
2023/04/29 05:27:53;;;;;;;13.57;7.47;;;;;;;9.88;63.60;94889.44;5009147;28;20283;-76
2023/04/29 05:30:19;;;;;;;12.33;6.10;;;;;;;9.90;62.37;94884.78;5000685;28;20554;-76
2023/04/29 05:32:44;;;;;;;10.97;6.00;;;;;;;9.81;62.66;94862.34;5005372;28;20191;-75
2023/04/29 05:35:10;;;;;;;8.40;5.50;;;;;;;10.06;62.00;94894.88;5011472;28;20176;-75
2023/04/29 05:37:36;;;;;;;10.03;5.53;;;;;;;10.05;59.72;94895.06;5002255;28;20171;-75
2023/04/29 05:40:01;;;;;;;11.87;6.10;;;;;;;10.02;60.61;94883.16;5010940;28;20187;-75
2023/04/29 05:42:26;;;;;;;12.60;5.97;;;;;;;9.98;61.29;94862.72;5011056;28;20176;-75
2023/04/29 05:44:52;;;;;;;12.13;6.13;;;;;;;10.31;62.03;94894.19;5011083;28;20266;-76
2023/04/29 05:47:17;;;;;;;14.70;6.53;;;;;;;10.52;61.05;94897.38;5011191;28;20803;-75
2023/04/29 05:49:43;;;;;;;22.47;8.53;;;;;;;10.65;59.85;94885.97;4993369;28;20180;-75
2023/04/29 05:52:08;;;;;;;26.73;13.23;;;;;;;11.06;61.32;94900.53;5011041;28;20701;-76
2023/04/29 05:54:34;;;;;;;22.07;11.23;;;;;;;11.30;59.65;94902.41;5008975;28;20175;-75
2023/04/29 05:57:03;;;;;;;19.20;10.60;;;;;;;11.66;57.94;94899.06;4994929;28;20666;-75
2023/04/29 05:59:30;;;;;;;20.07;10.27;;;;;;;12.46;56.51;94905.97;4994847;28;20176;-75
2023/04/29 06:01:56;;;;;;;25.23;11.90;;;;;;;13.85;53.44;94886.31;4994414;28;20177;-75
2023/04/29 06:04:21;;;;;;;22.73;9.87;;;;;;;14.90;46.24;94901.25;4995275;28;20252;-76
2023/04/29 06:06:47;;;;;;;13.50;7.37;;;;;;;15.65;45.40;94898.38;4995086;28;20189;-75
2023/04/29 06:09:14;;;;;;;14.30;7.53;;;;;;;16.02;43.20;94894.16;4994313;28;20618;-76
2023/04/29 06:11:40;;;;;;;15.40;7.68;;;;;;;16.90;42.65;94889.75;5008406;28;20541;-76
2023/04/29 06:14:05;;;;;;;12.90;6.72;;;;;;;17.79;42.28;94887.47;5005550;28;20177;-76
2023/04/29 06:16:32;;;;;;;13.15;6.68;;;;;;;18.46;40.39;94868.16;4994177;28;20239;-76
2023/04/29 06:18:57;;;;;;;8.88;5.97;;;;;;;19.15;40.07;94892.72;4993416;28;20256;-76
2023/04/29 06:21:22;;;;;;;11.07;6.38;;;;;;;19.46;38.19;94896.25;4993555;28;20779;-75
2023/04/29 06:23:48;;;;;;;9.18;7.15;;;;;;;19.72;36.81;94899.78;5002778;28;20176;-77
2023/04/29 06:26:14;;;;;;;12.55;7.57;;;;;;;19.95;38.01;94901.13;5004514;28;20325;-77
2023/04/29 06:28:39;;;;;;;8.85;5.47;;;;;;;20.04;35.86;94898.72;5003692;28;20221;-77
2023/04/29 06:31:04;;;;;;;10.15;6.15;;;;;;;19.69;34.11;94897.66;5001278;28;20565;-77
2023/04/29 06:33:30;;;;;;;11.85;5.95;;;;;;;19.30;36.49;94883.13;5005915;28;20255;-77
2023/04/29 06:35:56;;;;;;;12.13;5.80;;;;;;;19.36;35.17;94890.13;5002770;28;20200;-77
2023/04/29 06:38:21;;;;;;;18.33;6.15;;;;;;;19.31;35.84;94876.75;5007644;28;20642;-77
2023/04/29 06:40:47;;;;;;;9.82;5.25;;;;;;;19.27;34.85;94891.69;4999743;28;20282;-77
2023/04/29 06:43:12;;;;;;;9.95;5.43;;;;;;;19.08;37.03;94886.84;5003273;28;20168;-77
2023/04/29 06:45:37;;;;;;;11.68;5.85;;;;;;;19.32;35.47;94889.81;5014708;28;20247;-77
2023/04/29 06:48:03;;;;;;;11.38;5.72;;;;;;;19.21;35.66;94891.66;4999825;28;20199;-77
2023/04/29 06:50:28;;;;;;;9.75;6.07;;;;;;;19.31;36.02;94892.75;5014498;28;20181;-76
2023/04/29 06:52:54;;;;;;;9.10;5.78;;;;;;;19.48;36.33;94893.34;5006000;28;20215;-77
2023/04/29 06:55:19;;;;;;;11.18;6.07;;;;;;;19.45;35.07;94885.88;4994731;28;20228;-77
2023/04/29 06:57:45;;;;;;;12.30;5.85;;;;;;;18.20;36.12;94880.56;4993975;28;20176;-78
2023/04/29 07:00:10;;;;;;;14.52;5.57;;;;;;;18.23;37.84;94882.72;4994404;28;20173;-76
2023/04/29 07:02:37;;;;;;;15.02;6.68;;;;;;;18.59;38.26;94878.41;4994470;28;20173;-77
2023/04/29 07:05:04;;;;;;;7.90;5.22;;;;;;;18.91;36.99;94880.94;4993870;28;20173;-77
2023/04/29 07:07:29;;;;;;;6.55;4.30;;;;;;;18.89;35.46;94880.38;5013612;28;20192;-76
2023/04/29 07:09:55;;;;;;;7.55;4.72;;;;;;;18.52;36.38;94858.31;4998631;28;20301;-77
2023/04/29 07:12:20;;;;;;;8.10;4.82;;;;;;;18.53;35.79;94849.25;4994322;28;20714;-77
2023/04/29 07:14:46;;;;;;;10.45;4.70;;;;;;;18.66;35.73;94856.81;4992151;28;20184;-77
2023/04/29 07:17:11;;;;;;;8.00;5.10;;;;;;;18.31;35.52;94868.91;4999453;28;20187;-77
2023/04/29 07:19:36;;;;;;;11.02;5.53;;;;;;;18.25;37.20;94872.56;5004615;28;20181;-77
2023/04/29 07:22:02;;;;;;;8.52;5.43;;;;;;;18.55;36.24;94874.59;4996462;28;20655;-77
2023/04/29 07:24:28;;;;;;;9.70;4.90;;;;;;;18.96;36.69;94872.13;4996553;28;20252;-77
2023/04/29 07:26:53;;;;;;;8.23;5.22;;;;;;;19.18;35.13;94870.88;4993694;28;20746;-76
2023/04/29 07:29:19;;;;;;;9.80;6.55;;;;;;;19.14;34.57;94877.78;5004744;28;20213;-77
2023/04/29 07:31:44;;;;;;;11.00;5.60;;;;;;;19.30;36.68;94881.28;5004693;28;20188;-77
2023/04/29 07:34:10;;;;;;;10.60;5.70;;;;;;;19.91;37.67;94871.47;5011412;28;20188;-77
2023/04/29 07:36:35;;;;;;;9.45;5.38;;;;;;;20.46;34.29;94867.13;5011162;28;20183;-77
2023/04/29 07:39:00;;;;;;;11.68;5.30;;;;;;;20.56;33.47;94860.97;5008713;28;20664;-77
2023/04/29 07:41:27;;;;;;;11.60;5.30;;;;;;;20.39;32.29;94876.50;5005902;28;20188;-78
2023/04/29 07:43:52;;;;;;;9.52;5.30;;;;;;;20.32;34.93;94866.06;5002805;28;20172;-78
2023/04/29 07:46:17;;;;;;;9.25;5.72;;;;;;;20.12;32.96;94872.25;5004334;28;20176;-76
2023/04/29 07:48:44;;;;;;;9.32;5.30;;;;;;;19.52;34.81;94859.72;5002359;28;20209;-76
2023/04/29 07:51:13;;;;;;;10.02;5.40;;;;;;;18.85;33.76;94858.75;4993643;28;20176;-79
2023/04/29 07:53:39;;;;;;;11.45;5.63;;;;;;;18.73;36.47;94857.38;4988087;28;20185;-77
2023/04/29 07:56:08;;;;;;;10.40;5.35;;;;;;;18.62;37.19;94853.88;4993633;28;20211;-76
2023/04/29 07:58:35;;;;;;;11.18;5.28;;;;;;;18.59;34.75;94858.94;4995679;28;20183;-77
2023/04/29 08:01:10;;;;;;;7.18;4.97;;;;;;;18.58;35.56;94847.47;4998048;28;20699;-77
2023/04/29 08:03:36;;;;;;;8.18;5.00;;;;;;;18.61;37.10;94846.13;5001135;28;20191;-77
2023/04/29 08:06:05;;;;;;;8.40;4.60;;;;;;;18.77;35.66;94845.09;4993569;28;20260;-77
2023/04/29 08:08:31;;;;;;;9.05;5.25;;;;;;;18.83;34.92;94846.75;5001874;28;20196;-77
2023/04/29 08:10:56;;;;;;;11.65;5.85;;;;;;;18.91;34.69;94846.25;5002997;28;20173;-79
2023/04/29 08:13:22;;;;;;;7.35;5.10;;;;;;;19.05;34.53;94847.34;5006620;28;20872;-78
2023/04/29 08:15:47;;;;;;;9.07;4.85;;;;;;;19.02;34.60;94837.19;5010680;28;20181;-78
2023/04/29 08:18:13;;;;;;;8.85;5.70;;;;;;;18.90;34.54;94833.97;5004040;28;20710;-76
2023/04/29 08:20:38;;;;;;;9.40;5.38;;;;;;;18.56;34.02;94835.41;4999592;28;20200;-77
2023/04/29 08:23:03;;;;;;;12.15;6.30;;;;;;;18.34;38.22;94830.25;5006589;28;20184;-77
2023/04/29 08:25:29;;;;;;;10.23;5.00;;;;;;;18.04;35.27;94815.72;4997631;28;20177;-78
2023/04/29 08:27:55;;;;;;;7.28;4.75;;;;;;;18.10;36.95;94820.00;4993563;28;20201;-79
2023/04/29 08:30:21;;;;;;;8.65;5.60;;;;;;;18.08;35.97;94808.00;4993429;28;20219;-76
2023/04/29 08:32:46;;;;;;;6.35;4.90;;;;;;;18.15;35.97;94826.44;5005990;28;20184;-76
2023/04/29 08:35:11;;;;;;;8.85;5.20;;;;;;;18.31;35.37;94831.59;5001631;28;20170;-77
2023/04/29 08:37:37;;;;;;;10.75;5.63;;;;;;;18.48;35.81;94826.84;4993085;28;20645;-77
2023/04/29 08:40:04;;;;;;;6.32;4.70;;;;;;;18.77;35.42;94827.25;4999971;28;20307;-78
2023/04/29 08:42:35;;;;;;;7.53;5.20;;;;;;;18.74;34.23;94818.97;4994945;28;20255;-77
2023/04/29 08:45:02;;;;;;;7.88;4.75;;;;;;;18.61;35.25;94830.13;5000921;28;20168;-77
2023/04/29 08:47:31;;;;;;;10.82;4.32;;;;;;;18.55;36.03;94812.47;5001053;28;20189;-76
2023/04/29 08:50:05;;;;;;;12.15;5.57;;;;;;;18.91;37.65;94819.56;5003987;28;20270;-76
2023/04/29 08:52:31;;;;;;;16.08;5.43;;;;;;;19.21;35.08;94810.78;5006127;28;20203;-77
2023/04/29 08:55:04;;;;;;;7.75;4.05;;;;;;;19.34;35.53;94796.94;4985189;28;20181;-76
2023/04/29 08:57:38;;;;;;;11.65;5.57;;;;;;;19.61;34.41;94807.38;4996836;28;20165;-76
2023/04/29 09:00:07;;;;;;;10.48;5.22;;;;;;;19.89;34.89;94808.69;4995458;28;20166;-75
2023/04/29 09:02:40;;;;;;;11.98;4.45;;;;;;;20.02;33.89;94802.78;4995673;28;20196;-76
2023/04/29 09:05:10;;;;;;;8.63;5.05;;;;;;;19.99;32.32;94805.97;5003634;28;20177;-76
2023/04/29 09:07:38;;;;;;;8.00;4.68;;;;;;;20.07;34.14;94802.75;4996794;28;20207;-77
2023/04/29 09:10:04;;;;;;;12.18;5.00;;;;;;;20.08;34.98;94804.34;4993626;28;20247;-76
2023/04/29 09:12:30;;;;;;;10.60;5.20;;;;;;;20.02;35.93;94796.63;5000939;28;20414;-77
2023/04/29 09:14:56;;;;;;;9.18;4.95;;;;;;;20.03;34.57;94801.72;5001287;28;20187;-77
2023/04/29 09:17:41;;;;;;;14.35;6.10;;;;;;;19.91;34.36;94803.84;5000138;28;20173;-76
2023/04/29 09:20:18;;;;;;;8.00;4.68;;;;;;;19.76;34.36;94796.69;4989452;28;20187;-76
2023/04/29 09:22:51;;;;;;;9.57;5.15;;;;;;;19.56;32.47;94802.81;4994857;28;20195;-76
2023/04/29 09:25:17;;;;;;;14.10;5.30;;;;;;;19.29;35.27;94783.56;4992837;28;20173;-77
2023/04/29 09:27:42;;;;;;;9.70;5.13;;;;;;;19.19;36.14;94784.38;4991355;28;20279;-76
2023/04/29 09:30:09;;;;;;;7.05;4.95;;;;;;;19.38;36.24;94786.50;4992177;28;20231;-76
2023/04/29 09:32:35;;;;;;;11.70;5.10;;;;;;;19.54;36.68;94793.50;4992359;28;20191;-76
2023/04/29 09:35:23;;;;;;;10.57;4.97;;;;;;;19.74;36.36;94781.97;4992063;28;20177;-75
2023/04/29 09:37:49;;;;;;;14.50;4.90;;;;;;;19.95;34.99;94779.00;4998896;28;20634;-75
2023/04/29 09:40:31;;;;;;;10.00;4.72;;;;;;;20.15;34.25;94772.00;5004565;28;20188;-75
2023/04/29 09:42:58;;;;;;;7.80;4.22;;;;;;;20.28;33.20;94771.44;5009859;28;20656;-75
2023/04/29 09:45:37;;;;;;;7.00;3.78;;;;;;;20.23;33.05;94766.91;5009800;28;20187;-75
2023/04/29 09:48:07;;;;;;;6.10;3.75;;;;;;;20.16;31.89;94773.59;5010150;28;20232;-75
2023/04/29 09:50:36;;;;;;;9.18;4.18;;;;;;;19.77;33.63;94752.88;5010056;28;20638;-75
2023/04/29 09:53:01;;;;;;;6.38;4.07;;;;;;;19.71;35.94;94763.84;5010308;28;20176;-76
2023/04/29 09:55:28;;;;;;;8.70;4.68;;;;;;;19.71;34.57;94764.63;5010258;28;20176;-75
2023/04/29 09:57:54;;;;;;;8.02;4.05;;;;;;;19.80;35.31;94757.69;5010794;28;20174;-75
2023/04/29 10:00:19;;;;;;;8.05;4.55;;;;;;;19.83;35.29;94754.44;5011341;28;20172;-75
2023/04/29 10:02:47;;;;;;;5.95;3.65;;;;;;;19.94;36.45;94744.53;5011390;28;20183;-76
2023/04/29 10:05:13;;;;;;;6.47;3.63;;;;;;;19.93;33.79;94743.75;4994977;28;20361;-75
2023/04/29 10:07:40;;;;;;;6.35;3.83;;;;;;;19.86;32.71;94740.56;4990423;28;20691;-75
2023/04/29 10:10:07;;;;;;;7.18;3.25;;;;;;;19.61;32.84;94735.28;4990706;28;20220;-75
2023/04/29 10:12:34;;;;;;;7.18;3.85;;;;;;;19.41;31.80;94725.38;4990561;28;20280;-75
2023/04/29 10:15:09;;;;;;;8.90;3.97;;;;;;;19.35;33.92;94739.00;4990500;28;20579;-75
2023/04/29 10:17:57;;;;;;;6.85;3.17;;;;;;;19.36;35.81;94740.59;4990326;28;20181;-76
2023/04/29 10:20:25;;;;;;;6.65;3.05;;;;;;;19.41;34.96;94728.03;4990573;28;20177;-76
2023/04/29 10:22:55;;;;;;;8.00;3.38;;;;;;;19.41;35.39;94727.25;4972826;28;20584;-75
2023/04/29 10:25:22;;;;;;;6.72;3.38;;;;;;;19.39;34.03;94724.03;4972874;28;20589;-75
2023/04/29 10:27:48;;;;;;;10.73;3.20;;;;;;;19.43;35.12;94717.09;4990288;28;20664;-76
2023/04/29 10:30:16;;;;;;;10.85;3.72;;;;;;;19.37;35.70;94716.28;4990426;28;20589;-76
2023/04/29 10:32:46;;;;;;;7.05;3.70;;;;;;;19.42;35.25;94720.84;4990289;28;20177;-76
2023/04/29 10:35:13;;;;;;;8.35;3.78;;;;;;;19.35;34.14;94723.00;4990057;28;20181;-75
2023/04/29 10:37:40;;;;;;;6.28;2.88;;;;;;;19.30;33.20;94731.78;4990405;28;20170;-75
2023/04/29 10:40:16;;;;;;;7.68;4.00;;;;;;;19.30;35.12;94720.31;4993099;28;20189;-76
2023/04/29 10:42:46;;;;;;;5.72;2.97;;;;;;;19.23;33.89;94721.38;4994143;28;20663;-76
2023/04/29 10:45:22;;;;;;;5.40;3.05;;;;;;;19.15;35.23;94729.13;4993756;28;20234;-76
2023/04/29 10:48:07;;;;;;;7.18;3.38;;;;;;;19.22;34.43;94722.44;4993614;28;20197;-76
2023/04/29 10:50:34;;;;;;;9.15;3.50;;;;;;;19.21;35.31;94718.19;4993887;28;20624;-76
2023/04/29 10:53:03;;;;;;;7.25;3.33;;;;;;;19.33;35.69;94711.78;4993736;28;20296;-76
2023/04/29 10:55:30;;;;;;;4.18;2.72;;;;;;;19.46;33.52;94720.00;4993784;28;20185;-76
2023/04/29 10:57:56;;;;;;;3.60;2.50;;;;;;;19.47;32.53;94712.81;4993828;28;20176;-76
2023/04/29 11:00:30;;;;;;;4.78;2.67;;;;;;;19.40;34.21;94707.75;4993586;28;20169;-76
2023/04/29 11:03:00;;;;;;;5.78;3.22;;;;;;;19.39;32.09;94711.47;4993161;28;20635;-76
2023/04/29 11:05:33;;;;;;;3.20;2.08;;;;;;;19.32;32.44;94710.16;4999787;28;20299;-76
2023/04/29 11:08:15;;;;;;;3.70;2.13;;;;;;;19.28;32.08;94720.59;5012747;28;20207;-76
2023/04/29 11:10:41;;;;;;;2.60;2.08;;;;;;;19.15;31.53;94708.56;5012958;28;20181;-76
2023/04/29 11:13:27;;;;;;;5.18;2.15;;;;;;;18.99;31.13;94708.84;5012452;28;20183;-76
2023/04/29 11:16:03;;;;;;;5.03;2.00;;;;;;;18.88;30.69;94708.03;5010902;28;20183;-77
2023/04/29 11:18:28;;;;;;;6.90;2.70;;;;;;;18.82;31.94;94711.78;5002484;28;20262;-75
2023/04/29 11:21:06;;;;;;;7.43;2.38;;;;;;;18.69;31.60;94699.75;5013586;28;20429;-76
2023/04/29 11:23:39;;;;;;;4.45;2.10;;;;;;;18.66;32.43;94702.16;4999045;28;20165;-76
2023/04/29 11:26:05;;;;;;;5.13;2.28;;;;;;;18.64;32.00;94701.59;4993776;28;20177;-76
2023/04/29 11:28:32;;;;;;;6.30;1.85;;;;;;;18.54;32.11;94705.03;4975936;28;20641;-76